createdAt,value
2019-01-30T00:02:30.342Z,0.80
2019-01-30T00:05:01.876Z,0.80
2019-01-30T00:07:31.912Z,0.80
2019-01-30T00:10:01.968Z,0.80
2019-01-30T00:12:32.117Z,0.80
2019-01-30T00:15:02.179Z,0.80
2019-01-30T00:17:32.508Z,0.80
2019-01-30T00:20:02.642Z,0.80
2019-01-30T00:22:32.716Z,0.80
2019-01-30T00:25:02.794Z,0.80
2019-01-30T00:27:32.940Z,0.90
2019-01-30T00:30:05.302Z,0.80
2019-01-30T00:32:36.986Z,0.80
2019-01-30T00:35:07.783Z,0.90
2019-01-30T00:37:39.581Z,0.90
2019-01-30T00:40:11.317Z,0.90
2019-01-30T00:42:41.346Z,0.90
2019-01-30T00:45:13.126Z,0.90
2019-01-30T00:47:44.962Z,0.90
2019-01-30T00:50:16.812Z,0.90
2019-01-30T00:52:46.953Z,0.90
2019-01-30T00:55:17.175Z,0.90
2019-01-30T00:57:48.943Z,1.00
2019-01-30T01:00:20.219Z,1.00
2019-01-30T01:02:50.677Z,1.00
2019-01-30T01:05:20.893Z,1.00
2019-01-30T01:07:51.368Z,1.00
2019-01-30T01:10:22.034Z,1.00
2019-01-30T01:12:52.174Z,1.00
2019-01-30T01:19:49.812Z,1.00
2019-01-30T01:28:04.575Z,0.90
2019-01-30T01:42:19.521Z,0.90
2019-01-30T01:43:32.222Z,0.90
2019-01-30T01:46:02.333Z,0.90
2019-01-30T01:48:32.382Z,0.80
2019-01-30T01:51:02.429Z,0.80
2019-01-30T01:53:32.461Z,0.90
2019-01-30T01:56:02.586Z,0.90
2019-01-30T01:58:32.763Z,0.90
2019-01-30T02:01:03.370Z,1.00
2019-01-30T02:03:35.094Z,1.00
2019-01-30T02:06:05.866Z,1.00
2019-01-30T02:08:35.974Z,1.00
2019-01-30T02:11:06.034Z,1.10
2019-01-30T02:13:37.246Z,1.10
2019-01-30T02:16:07.838Z,1.10
2019-01-30T02:18:38.437Z,1.10
2019-01-30T02:21:08.476Z,1.20
2019-01-30T02:23:38.856Z,1.10
2019-01-30T02:26:08.918Z,1.20
2019-01-30T02:28:39.016Z,1.10
2019-01-30T02:31:09.054Z,1.10
2019-01-30T02:33:40.583Z,1.20
2019-01-30T02:36:10.743Z,1.20
2019-01-30T02:38:40.831Z,1.10
2019-01-30T02:41:10.898Z,1.20
2019-01-30T02:43:42.590Z,1.20
2019-01-30T02:46:12.726Z,1.20
2019-01-30T02:48:44.562Z,1.20
2019-01-30T02:51:15.079Z,1.20
2019-01-30T02:53:45.171Z,1.20
2019-01-30T02:56:15.287Z,1.20
2019-01-30T02:58:45.353Z,1.10
2019-01-30T03:01:16.623Z,1.10
2019-01-30T03:03:46.864Z,1.10
2019-01-30T03:06:16.936Z,1.10
2019-01-30T03:08:48.618Z,1.10
2019-01-30T03:11:18.657Z,1.20
2019-01-30T03:13:48.755Z,1.20
2019-01-30T03:16:19.780Z,1.20
2019-01-30T03:18:49.901Z,1.20
2019-01-30T03:21:20.087Z,1.20
2019-01-30T03:23:50.501Z,1.20
2019-01-30T03:26:20.556Z,1.20
2019-01-30T03:28:50.691Z,1.20
2019-01-30T03:31:20.914Z,1.20
2019-01-30T03:33:52.273Z,1.20
2019-01-30T03:36:22.411Z,1.20
2019-01-30T03:38:52.502Z,1.20
2019-01-30T03:41:22.735Z,1.20
2019-01-30T03:43:53.871Z,1.20
2019-01-30T03:46:24.063Z,1.20
2019-01-30T03:48:54.694Z,1.20
2019-01-30T03:51:24.835Z,1.20
2019-01-30T03:53:54.852Z,1.20
2019-01-30T03:56:24.908Z,1.20
2019-01-30T03:58:54.958Z,1.20
2019-01-30T04:01:26.677Z,1.20
2019-01-30T04:03:56.731Z,1.20
2019-01-30T04:06:26.801Z,1.20
2019-01-30T04:08:56.898Z,1.20
2019-01-30T04:11:27.057Z,1.20
2019-01-30T04:13:57.179Z,1.20
2019-01-30T04:16:27.387Z,1.20
2019-01-30T04:18:57.451Z,1.20
2019-01-30T04:21:27.856Z,1.20
2019-01-30T04:23:57.975Z,1.20
2019-01-30T04:26:28.257Z,1.30
2019-01-30T04:28:58.416Z,1.20
2019-01-30T04:31:37.812Z,1.20
2019-01-30T04:34:00.725Z,1.20
2019-01-30T04:36:31.131Z,1.20
2019-01-30T04:39:01.201Z,1.30
2019-01-30T04:41:31.315Z,1.30
2019-01-30T04:44:01.745Z,1.30
2019-01-30T04:46:31.861Z,1.20
2019-01-30T04:49:01.949Z,1.30
2019-01-30T04:51:32.116Z,1.30
2019-01-30T04:54:02.465Z,1.30
2019-01-30T04:56:32.543Z,1.30
2019-01-30T04:59:02.703Z,1.30
2019-01-30T05:01:32.927Z,1.30
2019-01-30T05:04:03.078Z,1.30
2019-01-30T05:06:33.543Z,1.40
2019-01-30T05:09:05.071Z,1.40
2019-01-30T05:11:54.312Z,1.40
2019-01-30T05:14:36.621Z,1.40
2019-01-30T05:17:18.310Z,1.40
2019-01-30T05:20:02.428Z,1.40
2019-01-30T05:22:46.101Z,1.40
2019-01-30T05:25:29.322Z,1.50
2019-01-30T05:28:11.021Z,1.40
2019-01-30T05:30:54.433Z,1.40
2019-01-30T05:33:37.537Z,1.40
2019-01-30T05:36:19.681Z,1.50
2019-01-30T05:39:01.905Z,1.50
2019-01-30T05:41:44.912Z,1.50
2019-01-30T05:44:27.120Z,1.50
2019-01-30T05:47:09.197Z,1.50
2019-01-30T05:49:50.999Z,1.50
2019-01-30T05:52:34.097Z,1.50
2019-01-30T05:55:16.308Z,1.50
2019-01-30T05:57:58.404Z,1.50
2019-01-30T06:00:42.439Z,1.40
2019-01-30T06:03:24.264Z,1.40
2019-01-30T06:06:06.445Z,1.40
2019-01-30T06:08:47.977Z,1.40
2019-01-30T06:11:31.286Z,1.40
2019-01-30T06:14:14.014Z,1.30
2019-01-30T06:16:55.751Z,1.30
2019-01-30T06:19:40.632Z,1.30
2019-01-30T06:22:10.749Z,1.30
2019-01-30T06:27:51.899Z,1.20
2019-01-30T06:30:34.894Z,1.20
2019-01-30T06:33:18.775Z,1.20
2019-01-30T06:36:02.798Z,1.20
2019-01-30T06:38:45.274Z,1.20
2019-01-30T06:41:27.410Z,1.10
2019-01-30T06:44:09.294Z,1.10
2019-01-30T06:46:51.304Z,1.00
2019-01-30T06:49:33.410Z,1.00
2019-01-30T06:52:15.357Z,1.00
2019-01-30T06:54:57.660Z,0.90
2019-01-30T06:57:39.847Z,0.90
2019-01-30T07:00:21.722Z,0.90
2019-01-30T07:03:03.785Z,0.90
2019-01-30T07:05:45.822Z,0.90
2019-01-30T07:08:28.930Z,0.90
2019-01-30T07:11:11.133Z,0.80
2019-01-30T07:13:53.094Z,0.90
2019-01-30T07:16:34.989Z,0.90
2019-01-30T07:19:17.542Z,0.90
2019-01-30T07:21:59.247Z,0.90
2019-01-30T07:24:41.573Z,0.90
2019-01-30T07:27:23.618Z,0.90
2019-01-30T07:30:05.525Z,0.90
2019-01-30T07:32:48.405Z,0.90
2019-01-30T07:35:30.195Z,1.00
2019-01-30T07:38:13.626Z,0.90
2019-01-30T07:40:55.533Z,0.90
2019-01-30T07:43:37.759Z,0.90
2019-01-30T07:46:19.707Z,1.00
2019-01-30T07:49:02.773Z,0.90
2019-01-30T07:51:46.032Z,1.00
2019-01-30T07:54:27.941Z,1.00
2019-01-30T07:57:09.779Z,1.00
2019-01-30T07:59:51.628Z,1.00
2019-01-30T08:02:33.793Z,1.00
2019-01-30T08:05:15.554Z,1.00
2019-01-30T08:07:57.461Z,1.00
2019-01-30T08:10:39.424Z,1.00
2019-01-30T08:13:22.484Z,1.10
2019-01-30T08:16:04.156Z,1.10
2019-01-30T08:18:46.040Z,1.10
2019-01-30T08:21:29.087Z,1.10
2019-01-30T08:27:08.097Z,1.10
2019-01-30T08:29:50.102Z,1.20
2019-01-30T08:35:25.124Z,1.20
2019-01-30T08:38:07.289Z,1.20
2019-01-30T08:40:49.570Z,1.20
2019-01-30T08:43:32.533Z,1.30
2019-01-30T08:46:14.382Z,1.30
2019-01-30T08:48:56.698Z,1.40
2019-01-30T08:51:38.684Z,1.40
2019-01-30T08:54:20.806Z,1.50
2019-01-30T08:56:52.935Z,1.50
2019-01-30T08:59:39.571Z,1.60
2019-01-30T09:02:22.075Z,1.50
2019-01-30T09:05:03.508Z,1.60
2019-01-30T09:07:45.089Z,1.50
2019-01-30T09:10:26.531Z,1.50
2019-01-30T09:13:08.064Z,1.50
2019-01-30T09:15:50.016Z,1.50
2019-01-30T09:18:31.649Z,1.50
2019-01-30T09:21:13.725Z,1.50
2019-01-30T09:23:55.825Z,1.50
2019-01-30T09:26:37.753Z,1.40
2019-01-30T09:29:19.805Z,1.40
2019-01-30T09:32:02.038Z,1.40
2019-01-30T09:34:43.777Z,1.40
2019-01-30T09:37:27.315Z,1.40
2019-01-30T09:40:09.002Z,1.40
2019-01-30T09:42:51.172Z,1.50
2019-01-30T09:45:32.732Z,1.40
2019-01-30T09:48:14.730Z,1.50
2019-01-30T09:50:56.675Z,1.60
2019-01-30T09:53:38.711Z,1.60
2019-01-30T09:56:20.537Z,1.70
2019-01-30T09:59:01.758Z,1.70
2019-01-30T10:01:43.145Z,1.80
2019-01-30T10:04:24.762Z,1.90
2019-01-30T10:07:06.958Z,2.00
2019-01-30T10:09:49.196Z,2.00
2019-01-30T10:12:30.971Z,2.10
2019-01-30T10:15:13.148Z,2.30
2019-01-30T10:17:55.431Z,2.30
2019-01-30T10:20:37.418Z,2.40
2019-01-30T10:23:19.422Z,2.30
2019-01-30T10:26:01.495Z,2.30
2019-01-30T10:28:43.167Z,2.20
2019-01-30T10:31:24.721Z,2.20
2019-01-30T10:34:06.672Z,2.10
2019-01-30T10:36:49.255Z,2.20
2019-01-30T10:39:31.426Z,2.20
2019-01-30T10:42:13.524Z,2.20
2019-01-30T10:44:57.052Z,2.20
2019-01-30T10:47:39.334Z,2.10
2019-01-30T10:50:21.326Z,2.10
2019-01-30T10:53:03.525Z,2.20
2019-01-30T10:55:45.764Z,2.20
2019-01-30T10:58:27.590Z,2.20
2019-01-30T11:01:09.525Z,2.20
2019-01-30T11:03:57.459Z,2.20
2019-01-30T11:33:47.641Z,2.30
2019-01-30T11:37:44.765Z,2.40
2019-01-30T11:40:24.591Z,2.50
2019-01-30T11:43:23.724Z,2.50
2019-01-30T11:47:30.056Z,2.60
2019-01-30T11:50:06.739Z,2.60
2019-01-30T12:10:42.575Z,2.40
2019-01-30T12:13:50.874Z,2.30
2019-01-30T12:17:21.726Z,2.30
2019-01-30T12:20:27.855Z,2.30
2019-01-30T12:23:16.038Z,2.30
2019-01-30T12:26:25.303Z,2.30
2019-01-30T12:29:38.786Z,2.30
2019-01-30T12:36:06.676Z,2.40
2019-01-30T12:42:53.625Z,2.60
2019-01-30T12:45:56.599Z,2.70
2019-01-30T12:48:53.833Z,2.70
2019-01-30T12:52:09.058Z,2.70
2019-01-30T12:55:45.413Z,2.80
2019-01-30T12:59:08.729Z,2.90
2019-01-30T13:02:11.340Z,3.00
2019-01-30T13:05:31.368Z,2.90
2019-01-30T13:08:28.673Z,2.90
2019-01-30T13:11:04.599Z,2.80
2019-01-30T13:13:34.769Z,2.80
2019-01-30T13:16:05.192Z,2.80
2019-01-30T13:18:35.350Z,2.90
2019-01-30T13:21:05.478Z,2.90
2019-01-30T13:23:35.606Z,3.00
2019-01-30T13:26:06.016Z,3.10
2019-01-30T13:28:36.039Z,3.10
2019-01-30T13:31:06.232Z,3.20
2019-01-30T13:33:36.378Z,3.20
2019-01-30T13:36:06.816Z,3.10
2019-01-30T13:38:36.874Z,3.10
2019-01-30T13:41:06.947Z,3.10
2019-01-30T13:43:37.441Z,3.00
2019-01-30T13:46:07.583Z,3.00
2019-01-30T13:48:37.900Z,3.00
2019-01-30T13:51:08.051Z,2.90
2019-01-30T13:53:38.108Z,2.80
2019-01-30T13:56:08.184Z,2.60
2019-01-30T13:58:38.389Z,2.50
2019-01-30T14:01:17.283Z,2.50
2019-01-30T14:03:40.291Z,2.40
2019-01-30T14:06:10.441Z,2.40
2019-01-30T14:08:40.777Z,2.40
2019-01-30T14:11:10.982Z,2.60
2019-01-30T14:13:41.140Z,2.60
2019-01-30T14:16:11.388Z,2.60
2019-01-30T14:18:41.580Z,2.60
2019-01-30T14:21:11.699Z,2.60
2019-01-30T14:23:41.889Z,2.60
2019-01-30T14:26:11.961Z,2.70
2019-01-30T14:28:42.264Z,2.70
2019-01-30T14:31:12.549Z,2.70
2019-01-30T14:33:42.840Z,2.70
2019-01-30T14:36:16.036Z,2.80
2019-01-30T14:38:46.186Z,2.80
2019-01-30T14:41:16.295Z,2.80
2019-01-30T14:43:46.447Z,2.80
2019-01-30T14:46:16.627Z,2.90
2019-01-30T14:48:46.772Z,2.90
2019-01-30T14:51:17.081Z,2.80
2019-01-30T14:53:47.166Z,2.80
2019-01-30T14:56:17.241Z,2.80
2019-01-30T14:59:00.661Z,2.80
2019-01-30T15:01:42.749Z,2.70
2019-01-30T15:04:24.958Z,2.60
2019-01-30T15:07:08.093Z,2.60
2019-01-30T15:09:50.330Z,2.60
2019-01-30T15:12:32.672Z,2.50
2019-01-30T15:15:14.181Z,2.50
2019-01-30T15:17:57.102Z,2.40
2019-01-30T15:20:39.032Z,2.40
2019-01-30T15:23:21.080Z,2.30
2019-01-30T15:26:03.171Z,2.20
2019-01-30T15:28:45.655Z,2.20
2019-01-30T15:31:27.328Z,2.20
2019-01-30T15:34:09.504Z,2.10
2019-01-30T15:36:52.792Z,2.00
2019-01-30T15:39:35.367Z,1.90
2019-01-30T15:42:17.344Z,1.80
2019-01-30T15:44:59.112Z,1.90
2019-01-30T15:47:40.816Z,1.80
2019-01-30T15:50:22.761Z,1.90
2019-01-30T15:53:04.963Z,1.90
2019-01-30T15:55:46.758Z,2.00
2019-01-30T15:58:29.619Z,2.00
2019-01-30T16:01:11.725Z,2.10
2019-01-30T16:03:55.521Z,2.20
2019-01-30T16:06:37.954Z,2.20
2019-01-30T16:09:20.347Z,2.20
2019-01-30T16:12:02.268Z,2.20
2019-01-30T16:14:43.810Z,2.20
2019-01-30T16:17:25.615Z,2.20
2019-01-30T16:20:07.780Z,2.20
2019-01-30T16:22:49.757Z,2.20
2019-01-30T16:25:31.194Z,2.20
2019-01-30T16:28:13.227Z,2.20
2019-01-30T16:30:55.150Z,2.10
2019-01-30T16:33:37.324Z,2.00
2019-01-30T16:36:20.180Z,1.90
2019-01-30T16:39:01.758Z,1.90
2019-01-30T16:41:43.803Z,1.80
2019-01-30T16:44:25.908Z,1.70
2019-01-30T16:47:07.777Z,1.70
2019-01-30T16:49:43.808Z,1.70
2019-01-30T16:52:19.673Z,1.60
2019-01-30T16:54:55.542Z,1.60
2019-01-30T16:57:32.648Z,1.60
2019-01-30T17:00:13.261Z,1.50
2019-01-30T17:02:48.470Z,1.60
2019-01-30T17:05:54.669Z,1.60
2019-01-30T17:08:32.341Z,1.60
2019-01-30T17:11:13.540Z,1.60
2019-01-30T17:22:07.469Z,1.60
2019-01-30T17:24:56.491Z,1.60
2019-01-30T17:27:26.518Z,1.60
2019-01-30T17:29:56.591Z,1.60
2019-01-30T17:32:26.728Z,1.60
2019-01-30T17:34:56.894Z,1.50
2019-01-30T17:37:28.288Z,1.50
2019-01-30T17:39:58.323Z,1.50
2019-01-30T17:42:28.429Z,1.50
2019-01-30T17:44:58.648Z,1.50
2019-01-30T17:47:31.957Z,1.40
2019-01-30T17:50:02.012Z,1.30
2019-01-30T17:52:32.250Z,1.30
2019-01-30T17:55:04.402Z,1.20
2019-01-30T17:57:34.547Z,1.20
2019-01-30T18:00:09.350Z,1.10
2019-01-30T18:02:39.404Z,1.10
2019-01-30T18:05:09.807Z,1.10
2019-01-30T18:07:39.896Z,1.00
2019-01-30T18:10:10.621Z,1.00
2019-01-30T18:12:40.663Z,1.00
2019-01-30T18:15:10.979Z,1.00
2019-01-30T18:17:41.205Z,0.90
2019-01-30T18:20:12.853Z,0.90
2019-01-30T18:22:44.583Z,0.90
2019-01-30T18:25:16.234Z,0.80
2019-01-30T18:27:46.744Z,0.70
2019-01-30T18:30:17.917Z,0.70
2019-01-30T18:32:49.797Z,0.70
2019-01-30T18:35:19.925Z,0.60
2019-01-30T18:37:50.005Z,0.60
2019-01-30T18:40:21.403Z,0.60
2019-01-30T18:42:51.497Z,0.50
2019-01-30T18:45:23.302Z,0.60
2019-01-30T18:47:53.463Z,0.50
2019-01-30T18:50:26.414Z,0.40
2019-01-30T18:52:56.600Z,0.40
2019-01-30T18:55:26.875Z,0.40
2019-01-30T18:57:57.146Z,0.40
2019-01-30T19:00:32.810Z,0.30
2019-01-30T19:03:04.467Z,0.30
2019-01-30T19:05:34.962Z,0.30
2019-01-30T19:08:05.529Z,0.30
2019-01-30T19:10:35.677Z,0.30
2019-01-30T19:13:06.080Z,0.30
2019-01-30T19:15:37.922Z,0.30
2019-01-30T19:18:09.150Z,0.20
2019-01-30T19:20:40.925Z,0.20
2019-01-30T19:23:10.980Z,0.20
2019-01-30T19:25:41.165Z,0.20
2019-01-30T19:28:11.425Z,0.20
2019-01-30T19:30:41.498Z,0.20
2019-01-30T19:33:11.961Z,0.30
2019-01-30T19:35:43.725Z,0.30
2019-01-30T19:38:13.809Z,0.20
2019-01-30T19:40:44.410Z,0.20
2019-01-30T19:43:14.500Z,0.20
2019-01-30T19:45:44.632Z,0.20
2019-01-30T19:48:14.765Z,0.20
2019-01-30T19:50:44.831Z,0.20
2019-01-30T19:53:15.129Z,0.20
2019-01-30T19:55:45.216Z,0.10
2019-01-30T19:58:15.351Z,0.00
2019-01-30T20:00:48.711Z,-0.10
2019-01-30T20:03:21.708Z,-0.10
2019-01-30T20:05:52.035Z,-0.20
2019-01-30T20:08:22.237Z,-0.20
2019-01-30T20:10:52.373Z,-0.20
2019-01-30T20:13:22.469Z,-0.20
2019-01-30T20:15:52.687Z,-0.20
2019-01-30T20:18:22.953Z,-0.20
2019-01-30T20:20:53.066Z,-0.20
2019-01-30T20:23:23.151Z,-0.30
2019-01-30T20:25:53.617Z,-0.30
2019-01-30T20:28:23.727Z,-0.30
2019-01-30T20:30:53.886Z,-0.30
2019-01-30T20:33:23.994Z,-0.30
2019-01-30T20:35:54.159Z,-0.30
2019-01-30T20:38:24.313Z,-0.30
2019-01-30T20:40:54.655Z,-0.30
2019-01-30T20:43:24.735Z,-0.30
2019-01-30T20:45:55.025Z,-0.40
2019-01-30T20:48:25.124Z,-0.40
2019-01-30T20:50:55.383Z,-0.40
2019-01-30T20:53:25.708Z,-0.40
2019-01-30T20:55:55.764Z,-0.40
2019-01-30T20:58:25.980Z,-0.50
2019-01-30T21:00:56.189Z,-0.50
2019-01-30T21:03:26.408Z,-0.50
2019-01-30T21:05:56.670Z,-0.50
2019-01-30T21:08:26.724Z,-0.50
2019-01-30T21:10:56.900Z,-0.50
2019-01-30T21:13:26.982Z,-0.50
2019-01-30T21:15:57.079Z,-0.60
2019-01-30T21:18:27.124Z,-0.60
2019-01-30T21:20:57.250Z,-0.70
2019-01-30T21:23:27.477Z,-0.70
2019-01-30T21:25:57.544Z,-0.70
2019-01-30T21:28:27.653Z,-0.70
2019-01-30T21:30:57.736Z,-0.80
2019-01-30T21:33:27.823Z,-0.90
2019-01-30T21:35:57.992Z,-0.90
2019-01-30T21:38:28.128Z,-0.90
2019-01-30T21:40:58.365Z,-0.90
2019-01-30T21:43:28.507Z,-0.90
2019-01-30T21:45:58.653Z,-1.00
2019-01-30T21:48:28.702Z,-1.00
2019-01-30T21:50:58.775Z,-1.00
2019-01-30T21:53:28.893Z,-1.00
2019-01-30T21:55:58.995Z,-1.00
2019-01-30T21:58:29.123Z,-1.00
2019-01-30T22:00:59.277Z,-1.00
2019-01-30T22:03:29.392Z,-1.00
2019-01-30T22:05:59.522Z,-1.00
2019-01-30T22:08:29.662Z,-1.00
2019-01-30T22:11:00.789Z,-1.00
2019-01-30T22:13:32.717Z,-1.00
2019-01-30T22:16:02.866Z,-1.10
2019-01-30T22:18:33.023Z,-1.10
2019-01-30T22:21:03.166Z,-1.10
2019-01-30T22:23:33.287Z,-1.20
2019-01-30T22:26:03.358Z,-1.20
2019-01-30T22:28:33.476Z,-0.90
2019-01-30T22:31:03.578Z,-0.90
2019-01-30T22:33:33.772Z,-0.90
2019-01-30T22:36:03.921Z,-0.90
2019-01-30T22:38:34.041Z,-1.00
2019-01-30T22:41:04.558Z,-1.00
2019-01-30T22:43:34.629Z,-1.00
2019-01-30T22:46:04.746Z,-1.10
2019-01-30T22:48:34.769Z,-1.10
2019-01-30T22:51:05.021Z,-1.10
2019-01-30T22:53:35.274Z,-1.10
2019-01-30T22:56:05.655Z,-1.10
2019-01-30T22:58:35.769Z,-1.10
2019-01-30T23:01:28.667Z,-1.10
2019-01-30T23:04:11.662Z,-1.10
2019-01-30T23:07:06.555Z,-1.10
2019-01-30T23:10:33.210Z,-1.10
2019-01-30T23:13:27.884Z,-1.10
2019-01-30T23:16:28.971Z,-1.10
2019-01-30T23:19:43.055Z,-1.20
2019-01-30T23:22:37.776Z,-1.20
2019-01-30T23:25:50.328Z,-1.30
2019-01-30T23:29:01.506Z,-1.30
2019-01-30T23:31:49.183Z,-1.30
2019-01-30T23:34:57.893Z,-1.30
2019-01-30T23:37:52.914Z,-1.30
2019-01-30T23:40:40.635Z,-1.40
2019-01-30T23:43:52.211Z,-1.40
2019-01-30T23:46:58.678Z,-1.40
2019-01-30T23:50:00.484Z,-1.40
2019-01-30T23:52:59.416Z,-1.50
2019-01-30T23:56:04.588Z,-1.50
2019-01-30T23:59:23.871Z,-1.50
